Search for airport 
image banner adimage banner adimage banner ad
image banner ad

IA60 - Guttenberg Muni Hosp

Located in Guttenberg, United States

ICAO - IA60, IATA -

Data provided by Airmate  

General information

Coordinates: N42°47'10" W91°5'60"
Elevation is 655 feet MSL.
 
View others Airports in Iowa

Operational data

Special qualification required
Current time UTC:
Current local time:
Weather at : KPDC - Prairie Du Chien Muni ( 26 km )
METAR: KPDC 150835Z AUTO 00000KT 10SM CLR 14/11 A3007 RMK AO2 T01410108
View NOTAMs / SUP AIP / TFR affecting this airport [VIEW]
Communications frequencies: [VIEW]

Runways:

Airport contact information

Address: Guttenberg United States

Satellite view of IA60